createdAt,value
2017-07-18T00:01:45.301Z,79.70
2017-07-18T00:04:13.064Z,79.04
2017-07-18T00:06:40.774Z,78.84
2017-07-18T00:09:08.477Z,78.19
2017-07-18T00:11:36.213Z,77.67
2017-07-18T00:14:03.956Z,78.26
2017-07-18T00:16:31.736Z,79.16
2017-07-18T00:18:59.537Z,79.39
2017-07-18T00:21:27.238Z,79.37
2017-07-18T00:23:54.946Z,79.26
2017-07-18T00:26:22.715Z,78.96
2017-07-18T00:28:50.493Z,78.51
2017-07-18T00:31:18.298Z,78.27
2017-07-18T00:33:46.700Z,78.48
2017-07-18T00:36:14.425Z,79.06
2017-07-18T00:38:42.157Z,79.99
2017-07-18T00:41:10.861Z,80.10
2017-07-18T00:43:38.637Z,80.13
2017-07-18T00:46:06.550Z,79.70
2017-07-18T00:48:34.443Z,80.17
2017-07-18T00:51:02.252Z,80.03
2017-07-18T00:53:30.006Z,79.78
2017-07-18T00:55:58.696Z,80.48
2017-07-18T00:58:26.476Z,80.30
2017-07-18T01:00:54.188Z,80.73
2017-07-18T01:03:21.995Z,79.87
2017-07-18T01:05:50.912Z,79.43
2017-07-18T01:08:18.796Z,80.53
2017-07-18T01:10:46.492Z,80.19
2017-07-18T01:13:14.213Z,80.30
2017-07-18T01:15:41.953Z,80.64
2017-07-18T01:18:09.667Z,80.68
2017-07-18T01:20:37.411Z,80.44
2017-07-18T01:23:05.155Z,80.60
2017-07-18T01:25:32.949Z,80.90
2017-07-18T01:28:00.637Z,80.83
2017-07-18T01:30:28.426Z,80.49
2017-07-18T01:32:56.123Z,80.87
2017-07-18T01:35:23.826Z,81.05
2017-07-18T01:37:51.562Z,81.73
2017-07-18T01:40:21.091Z,81.17
2017-07-18T01:42:48.833Z,80.97
2017-07-18T01:45:16.574Z,81.51
2017-07-18T01:47:45.386Z,81.76
2017-07-18T01:50:13.151Z,81.83
2017-07-18T01:52:40.874Z,81.75
2017-07-18T01:55:08.648Z,81.30
2017-07-18T01:57:36.349Z,82.09
2017-07-18T02:00:04.097Z,82.00
2017-07-18T02:02:32.664Z,82.62
2017-07-18T02:05:00.376Z,81.63
2017-07-18T02:07:28.086Z,81.66
2017-07-18T02:09:55.903Z,81.82
2017-07-18T02:12:23.789Z,81.89
2017-07-18T02:14:51.517Z,81.51
2017-07-18T02:17:19.337Z,81.55
2017-07-18T02:19:47.106Z,81.00
2017-07-18T02:22:14.902Z,81.45
2017-07-18T02:24:42.836Z,82.11
2017-07-18T02:27:11.362Z,82.28
2017-07-18T02:29:39.350Z,81.58
2017-07-18T02:32:07.056Z,81.96
2017-07-18T02:34:34.897Z,81.30
2017-07-18T02:37:02.580Z,81.86
2017-07-18T02:39:30.281Z,82.07
2017-07-18T02:41:58.031Z,82.36
2017-07-18T02:44:26.783Z,82.58
2017-07-18T02:46:54.622Z,82.80
2017-07-18T02:49:22.323Z,82.48
2017-07-18T02:51:50.119Z,82.46
2017-07-18T02:54:18.726Z,81.27
2017-07-18T02:56:46.684Z,82.77
2017-07-18T02:59:14.413Z,81.72
2017-07-18T03:01:42.186Z,82.48
2017-07-18T03:04:09.902Z,82.28
2017-07-18T03:06:37.606Z,82.30
2017-07-18T03:09:05.375Z,83.25
2017-07-18T03:11:33.073Z,82.25
2017-07-18T03:14:02.018Z,82.40
2017-07-18T03:16:30.815Z,82.69
2017-07-18T03:18:58.569Z,82.26
2017-07-18T03:21:26.354Z,81.77
2017-07-18T03:24:05.013Z,82.34
2017-07-18T03:26:32.782Z,82.75
2017-07-18T03:29:00.940Z,81.99
2017-07-18T03:31:28.683Z,82.54
2017-07-18T03:33:56.441Z,83.44
2017-07-18T03:36:24.207Z,82.50
2017-07-18T03:38:51.902Z,82.33
2017-07-18T03:41:19.588Z,82.38
2017-07-18T03:43:47.341Z,82.98
2017-07-18T03:46:15.067Z,81.97
2017-07-18T03:48:42.773Z,82.71
2017-07-18T03:51:10.507Z,82.54
2017-07-18T03:53:38.184Z,82.41
2017-07-18T03:56:06.044Z,82.82
2017-07-18T03:58:33.791Z,83.08
2017-07-18T04:01:01.504Z,83.19
2017-07-18T04:03:29.195Z,82.20
2017-07-18T04:05:56.988Z,83.01
2017-07-18T04:08:24.773Z,83.10
2017-07-18T04:10:52.604Z,82.81
2017-07-18T04:13:20.302Z,82.75
2017-07-18T04:15:48.031Z,83.44
2017-07-18T04:18:15.805Z,83.02
2017-07-18T04:20:43.510Z,83.30
2017-07-18T04:23:11.274Z,83.00
2017-07-18T04:25:38.978Z,83.39
2017-07-18T04:28:06.703Z,83.13
2017-07-18T04:30:34.641Z,82.66
2017-07-18T04:33:02.378Z,82.88
2017-07-18T04:35:30.105Z,83.81
2017-07-18T04:37:57.886Z,83.50
2017-07-18T04:40:25.694Z,83.60
2017-07-18T04:42:53.451Z,83.19
2017-07-18T04:45:21.271Z,84.19
2017-07-18T04:47:48.987Z,83.77
2017-07-18T04:50:16.930Z,84.04
2017-07-18T04:52:44.718Z,83.43
2017-07-18T04:55:12.500Z,83.08
2017-07-18T04:57:40.299Z,82.46
2017-07-18T05:00:08.016Z,81.41
2017-07-18T05:02:35.771Z,81.80
2017-07-18T05:05:03.558Z,81.19
2017-07-18T05:07:31.357Z,80.71
2017-07-18T05:09:59.057Z,79.43
2017-07-18T05:12:26.813Z,78.94
2017-07-18T05:14:54.522Z,77.80
2017-07-18T05:17:22.632Z,77.75
2017-07-18T05:19:50.352Z,76.25
2017-07-18T05:22:18.182Z,76.61
2017-07-18T05:24:46.120Z,76.26
2017-07-18T05:27:13.843Z,75.80
2017-07-18T05:29:41.637Z,75.05
2017-07-18T05:32:09.340Z,73.92
2017-07-18T05:34:37.091Z,73.57
2017-07-18T05:37:04.844Z,73.96
2017-07-18T05:39:32.642Z,72.35
2017-07-18T05:42:00.347Z,72.31
2017-07-18T05:44:28.123Z,71.86
2017-07-18T05:46:55.818Z,72.34
2017-07-18T05:49:23.530Z,71.82
2017-07-18T05:51:51.349Z,71.05
2017-07-18T05:54:19.180Z,72.94
2017-07-18T05:56:46.951Z,73.16
2017-07-18T05:59:15.629Z,71.92
2017-07-18T06:01:43.430Z,70.11
2017-07-18T06:04:11.169Z,70.18
2017-07-18T06:06:38.885Z,71.77
2017-07-18T06:09:06.649Z,70.46
2017-07-18T06:11:34.416Z,69.06
2017-07-18T06:14:02.152Z,67.91
2017-07-18T06:16:29.925Z,67.48
2017-07-18T06:18:57.643Z,67.01
2017-07-18T06:21:25.497Z,67.12
2017-07-18T06:23:53.230Z,67.18
2017-07-18T06:26:20.920Z,65.98
2017-07-18T06:28:48.695Z,66.99
2017-07-18T06:31:16.434Z,65.58
2017-07-18T06:33:44.211Z,65.54
2017-07-18T06:36:11.921Z,65.31
2017-07-18T06:38:39.706Z,64.37
2017-07-18T06:41:07.421Z,64.94
2017-07-18T06:43:35.119Z,64.10
2017-07-18T06:46:02.876Z,62.04
2017-07-18T06:48:30.597Z,60.32
2017-07-18T06:50:58.361Z,60.84
2017-07-18T06:53:26.155Z,60.64
2017-07-18T06:55:54.029Z,60.87
2017-07-18T06:58:21.731Z,58.83
2017-07-18T07:00:49.449Z,57.40
2017-07-18T07:03:17.217Z,55.86
2017-07-18T07:05:44.915Z,55.42
2017-07-18T07:08:12.652Z,57.55
2017-07-18T07:10:40.422Z,57.23
2017-07-18T07:13:08.122Z,60.04
2017-07-18T07:15:35.863Z,59.49
2017-07-18T07:18:04.012Z,57.56
2017-07-18T07:20:31.791Z,59.62
2017-07-18T07:22:59.597Z,59.01
2017-07-18T07:25:27.301Z,58.23
2017-07-18T07:27:55.000Z,57.23
2017-07-18T07:30:22.778Z,56.09
2017-07-18T07:32:50.540Z,57.68
2017-07-18T07:35:18.230Z,57.32
2017-07-18T07:37:45.998Z,58.42
2017-07-18T07:40:13.686Z,57.91
2017-07-18T07:42:41.415Z,55.57
2017-07-18T07:45:09.190Z,55.95
2017-07-18T07:47:37.018Z,53.90
2017-07-18T07:50:04.761Z,53.44
2017-07-18T07:52:32.770Z,54.58
2017-07-18T07:55:01.547Z,54.54
2017-07-18T07:57:29.294Z,55.82
2017-07-18T07:59:57.132Z,54.68
2017-07-18T08:02:24.972Z,54.65
2017-07-18T08:04:52.800Z,54.60
2017-07-18T08:07:20.596Z,52.62
2017-07-18T08:09:48.318Z,50.90
2017-07-18T08:12:16.036Z,50.50
2017-07-18T08:14:43.835Z,51.77
2017-07-18T08:17:11.604Z,50.88
2017-07-18T08:19:39.369Z,53.19
2017-07-18T08:22:07.270Z,51.33
2017-07-18T08:24:34.966Z,52.86
2017-07-18T08:27:02.680Z,52.33
2017-07-18T08:29:30.540Z,51.73
2017-07-18T08:31:58.296Z,51.53
2017-07-18T08:34:25.994Z,51.77
2017-07-18T08:36:53.740Z,49.10
2017-07-18T08:39:21.507Z,49.40
2017-07-18T08:41:49.261Z,49.65
2017-07-18T08:44:17.022Z,49.28
2017-07-18T08:46:44.866Z,49.88
2017-07-18T08:49:12.661Z,47.87
2017-07-18T08:51:40.434Z,45.66
2017-07-18T08:54:08.237Z,48.36
2017-07-18T08:56:35.953Z,48.78
2017-07-18T08:59:03.668Z,45.84
2017-07-18T09:01:31.438Z,47.65
2017-07-18T09:03:59.138Z,48.63
2017-07-18T09:06:26.850Z,49.97
2017-07-18T09:08:54.581Z,49.58
2017-07-18T09:11:22.288Z,48.42
2017-07-18T09:13:50.157Z,48.80
2017-07-18T09:16:17.922Z,47.90
2017-07-18T09:18:45.676Z,47.26
2017-07-18T09:21:13.423Z,49.93
2017-07-18T09:23:41.184Z,48.29
2017-07-18T09:26:08.889Z,48.97
2017-07-18T09:28:36.677Z,43.76
2017-07-18T09:31:21.959Z,48.62
2017-07-18T09:34:07.152Z,45.44
2017-07-18T09:36:34.879Z,48.09
2017-07-18T09:39:02.563Z,48.13
2017-07-18T09:41:30.281Z,45.37
2017-07-18T09:43:57.978Z,47.04
2017-07-18T09:46:25.776Z,46.32
2017-07-18T09:48:53.473Z,42.39
2017-07-18T09:51:21.267Z,48.49
2017-07-18T09:53:48.980Z,44.90
2017-07-18T09:56:16.754Z,43.94
2017-07-18T09:58:44.516Z,42.35
2017-07-18T10:01:12.909Z,43.01
2017-07-18T10:03:40.748Z,44.72
2017-07-18T10:06:08.545Z,40.52
2017-07-18T10:08:36.397Z,41.61
2017-07-18T10:11:04.230Z,42.06
2017-07-18T10:13:31.988Z,42.83
2017-07-18T10:16:00.606Z,41.36
2017-07-18T10:18:28.417Z,41.50
2017-07-18T10:20:56.145Z,42.45
2017-07-18T10:23:23.865Z,43.18
2017-07-18T10:25:51.703Z,42.87
2017-07-18T10:28:19.406Z,41.80
2017-07-18T10:30:47.096Z,43.17
2017-07-18T10:33:15.167Z,42.78
2017-07-18T10:35:43.430Z,42.82
2017-07-18T10:38:11.146Z,42.63
2017-07-18T10:40:39.198Z,43.29
2017-07-18T10:44:26.895Z,42.76
2017-07-18T10:46:54.672Z,42.72
2017-07-18T10:49:22.393Z,42.26
2017-07-18T10:51:50.167Z,43.74
2017-07-18T10:54:17.939Z,42.15
2017-07-18T10:56:45.691Z,41.35
2017-07-18T10:59:13.456Z,41.65
2017-07-18T11:01:41.213Z,42.75
2017-07-18T11:04:08.905Z,42.67
2017-07-18T11:06:36.811Z,41.34
2017-07-18T11:09:04.661Z,41.00
2017-07-18T11:11:32.366Z,40.87
2017-07-18T11:14:00.138Z,41.69
2017-07-18T11:16:27.844Z,41.14
2017-07-18T11:21:30.019Z,40.29
2017-07-18T11:23:57.779Z,40.68
2017-07-18T11:26:25.625Z,38.23
2017-07-18T11:28:53.381Z,41.22
2017-07-18T11:31:21.168Z,39.50
2017-07-18T11:33:48.887Z,37.40
2017-07-18T11:36:16.711Z,38.42
2017-07-18T11:38:44.420Z,39.27
2017-07-18T11:41:12.134Z,38.64
2017-07-18T11:43:39.870Z,38.49
2017-07-18T11:46:07.612Z,37.32
2017-07-18T11:48:35.386Z,38.27
2017-07-18T11:51:03.193Z,38.73
2017-07-18T11:53:31.013Z,38.46
2017-07-18T11:55:58.717Z,40.30
2017-07-18T11:58:26.433Z,37.85
2017-07-18T12:00:54.216Z,38.51
2017-07-18T12:03:21.920Z,39.32
2017-07-18T12:05:49.690Z,38.25
2017-07-18T12:08:17.401Z,39.35
2017-07-18T12:10:45.165Z,37.41
2017-07-18T12:13:12.895Z,37.39
2017-07-18T12:15:40.601Z,40.42
2017-07-18T12:18:08.452Z,35.83
2017-07-18T12:20:36.170Z,37.78
2017-07-18T12:23:03.946Z,38.65
2017-07-18T12:25:31.758Z,37.89
2017-07-18T12:27:59.632Z,39.72
2017-07-18T12:30:27.327Z,37.46
2017-07-18T12:32:55.185Z,37.84
2017-07-18T12:35:22.944Z,38.57
2017-07-18T12:37:50.825Z,34.49
2017-07-18T12:40:18.654Z,37.80
2017-07-18T12:42:47.180Z,36.12
2017-07-18T12:45:14.914Z,37.58
2017-07-18T12:47:42.769Z,37.40
2017-07-18T12:50:10.523Z,36.92
2017-07-18T12:52:38.345Z,37.34
2017-07-18T12:55:06.119Z,37.46
2017-07-18T12:57:33.915Z,37.78
2017-07-18T13:00:02.738Z,38.78
2017-07-18T13:02:30.512Z,38.23
2017-07-18T13:04:58.337Z,38.52
2017-07-18T13:07:26.136Z,38.22
2017-07-18T13:09:53.947Z,38.25
2017-07-18T13:12:21.736Z,35.07
2017-07-18T13:14:49.596Z,34.56
2017-07-18T13:17:17.425Z,38.42
2017-07-18T13:19:45.279Z,37.99
2017-07-18T13:22:12.992Z,36.51
2017-07-18T13:24:40.777Z,36.69
2017-07-18T13:27:08.564Z,36.66
2017-07-18T13:29:36.271Z,37.09
2017-07-18T13:32:04.156Z,38.84
2017-07-18T13:34:31.862Z,39.65
2017-07-18T13:36:59.593Z,39.87
2017-07-18T13:39:27.347Z,38.13
2017-07-18T13:41:55.129Z,41.07
2017-07-18T13:44:23.070Z,37.45
2017-07-18T13:46:50.843Z,39.05
2017-07-18T13:49:18.772Z,35.88
2017-07-18T13:51:46.524Z,36.80
2017-07-18T13:54:14.271Z,36.63
2017-07-18T13:56:42.045Z,35.50
2017-07-18T13:59:09.798Z,34.63
2017-07-18T14:01:37.557Z,35.64
2017-07-18T14:04:05.344Z,36.04
2017-07-18T14:06:33.110Z,37.04
2017-07-18T14:09:00.944Z,35.33
2017-07-18T14:11:28.827Z,36.06
2017-07-18T14:13:56.596Z,36.43
2017-07-18T14:16:24.346Z,37.28
2017-07-18T14:18:52.023Z,36.89
2017-07-18T14:21:19.770Z,37.07
2017-07-18T14:23:47.449Z,36.04
2017-07-18T14:26:15.189Z,37.34
2017-07-18T14:28:42.961Z,37.41
2017-07-18T14:31:10.734Z,35.09
2017-07-18T14:33:38.451Z,34.57
2017-07-18T14:36:06.232Z,35.71
2017-07-18T14:38:33.935Z,36.14
2017-07-18T14:41:01.674Z,37.01
2017-07-18T14:43:29.431Z,35.51
2017-07-18T14:45:57.230Z,35.16
2017-07-18T14:48:24.920Z,34.48
2017-07-18T14:50:52.698Z,35.48
2017-07-18T14:53:20.456Z,35.74
2017-07-18T14:55:48.199Z,37.20
2017-07-18T14:58:16.223Z,39.91
2017-07-18T15:00:43.949Z,39.63
2017-07-18T15:03:11.715Z,41.75
2017-07-18T15:05:39.424Z,43.88
2017-07-18T15:08:07.208Z,44.21
2017-07-18T15:10:34.909Z,45.15
2017-07-18T15:13:02.613Z,44.33
2017-07-18T15:15:30.402Z,45.34
2017-07-18T15:17:58.147Z,46.74
2017-07-18T15:20:25.908Z,44.86
2017-07-18T15:22:53.795Z,45.63
2017-07-18T15:25:21.590Z,48.23
2017-07-18T15:27:49.370Z,47.96
2017-07-18T15:30:17.874Z,47.80
2017-07-18T15:32:45.595Z,49.86
2017-07-18T15:35:13.327Z,48.79
2017-07-18T15:37:41.063Z,47.05
2017-07-18T15:40:08.943Z,48.66
2017-07-18T15:42:36.696Z,49.89
2017-07-18T15:45:04.596Z,49.90
2017-07-18T15:47:32.789Z,50.33
2017-07-18T15:50:00.546Z,50.54
2017-07-18T15:52:28.303Z,48.68
2017-07-18T15:54:56.110Z,47.12
2017-07-18T15:57:23.841Z,49.08
2017-07-18T15:59:51.607Z,49.75
2017-07-18T16:02:19.285Z,49.50
2017-07-18T16:04:47.060Z,48.07
2017-07-18T16:07:14.752Z,47.19
2017-07-18T16:09:42.599Z,48.20
2017-07-18T16:12:10.315Z,48.32
2017-07-18T16:14:38.095Z,47.18
2017-07-18T16:17:05.872Z,48.21
2017-07-18T16:19:33.659Z,49.38
2017-07-18T16:22:01.984Z,48.15
2017-07-18T16:24:30.856Z,49.51
2017-07-18T16:26:58.652Z,51.14
2017-07-18T16:29:26.466Z,51.54
2017-07-18T16:31:54.341Z,51.47
2017-07-18T16:34:22.142Z,53.87
2017-07-18T16:36:49.855Z,55.25
2017-07-18T16:39:17.648Z,55.46
2017-07-18T16:41:45.377Z,55.47
2017-07-18T16:44:13.142Z,56.66
2017-07-18T16:46:40.891Z,57.03
2017-07-18T16:49:08.694Z,58.13
2017-07-18T16:51:36.421Z,59.88
2017-07-18T16:54:04.258Z,61.13
2017-07-18T16:56:31.978Z,63.03
2017-07-18T16:58:59.700Z,65.02
2017-07-18T17:01:27.473Z,66.82
2017-07-18T17:03:55.238Z,67.42
2017-07-18T17:06:23.052Z,70.26
2017-07-18T17:08:52.008Z,72.62
2017-07-18T17:11:19.816Z,70.33
2017-07-18T17:13:47.607Z,73.12
2017-07-18T17:16:15.306Z,73.55
2017-07-18T17:18:43.056Z,73.49
2017-07-18T17:21:10.785Z,74.08
2017-07-18T17:23:38.551Z,76.36
2017-07-18T17:26:06.297Z,76.21
2017-07-18T17:28:34.022Z,74.18
2017-07-18T17:31:01.907Z,76.17
2017-07-18T17:33:29.624Z,77.13
2017-07-18T17:35:58.462Z,76.83
2017-07-18T17:38:26.361Z,75.36
2017-07-18T17:40:54.140Z,76.26
2017-07-18T17:43:21.922Z,78.75
2017-07-18T17:45:49.717Z,77.99
2017-07-18T17:48:17.548Z,77.64
2017-07-18T17:50:45.246Z,77.82
2017-07-18T17:53:13.076Z,77.91
2017-07-18T17:55:40.893Z,79.07
2017-07-18T17:58:08.661Z,78.31
2017-07-18T18:00:36.478Z,78.43
2017-07-18T18:03:04.257Z,78.94
2017-07-18T18:05:32.362Z,77.50
2017-07-18T18:08:00.195Z,76.45
2017-07-18T18:10:28.112Z,77.02
2017-07-18T18:12:55.852Z,76.61
2017-07-18T18:15:23.787Z,78.08
2017-07-18T18:17:51.627Z,78.54
2017-07-18T18:20:19.529Z,77.74
2017-07-18T18:22:48.362Z,78.13
2017-07-18T18:25:17.495Z,80.22
2017-07-18T18:27:45.413Z,79.96
2017-07-18T18:30:14.006Z,79.26
2017-07-18T18:32:42.285Z,79.75
2017-07-18T18:35:10.093Z,79.66
2017-07-18T18:37:37.910Z,80.43
2017-07-18T18:40:05.765Z,81.67
2017-07-18T18:42:33.825Z,80.48
2017-07-18T18:45:02.980Z,79.87
2017-07-18T18:47:31.312Z,80.12
2017-07-18T18:49:59.124Z,78.98
2017-07-18T18:52:27.088Z,78.69
2017-07-18T18:54:55.143Z,79.49
2017-07-18T18:57:23.909Z,79.69
2017-07-18T18:59:52.796Z,79.91
2017-07-18T19:02:20.917Z,82.28
2017-07-18T19:04:48.849Z,82.12
2017-07-18T19:07:16.599Z,81.80
2017-07-18T19:09:44.614Z,74.49
2017-07-18T19:12:13.460Z,75.02
2017-07-18T19:14:41.988Z,74.77
2017-07-18T19:17:09.738Z,74.69
2017-07-18T19:19:37.618Z,74.99
2017-07-18T19:22:05.744Z,79.15
2017-07-18T19:24:33.629Z,74.78
2017-07-18T19:27:01.664Z,75.81
2017-07-18T19:29:29.468Z,78.80
2017-07-18T19:31:57.575Z,75.00
2017-07-18T19:34:25.376Z,74.65
2017-07-18T19:36:53.439Z,75.69
2017-07-18T19:39:22.398Z,79.22
2017-07-18T19:41:50.278Z,79.64
2017-07-18T19:44:18.218Z,76.62
2017-07-18T19:46:46.097Z,77.59
2017-07-18T19:49:13.901Z,76.57
2017-07-18T19:51:41.643Z,78.53
2017-07-18T19:54:09.398Z,75.28
2017-07-18T19:56:37.115Z,75.44
2017-07-18T19:59:04.930Z,77.84
2017-07-18T20:01:32.645Z,79.94
2017-07-18T20:04:00.407Z,74.61
2017-07-18T20:06:28.176Z,73.19
2017-07-18T20:08:55.947Z,75.65
2017-07-18T20:11:23.730Z,72.52
2017-07-18T20:13:51.518Z,72.30
2017-07-18T20:16:20.344Z,72.84
2017-07-18T20:18:48.152Z,73.65
2017-07-18T20:21:16.413Z,76.32
2017-07-18T20:23:44.223Z,78.37
2017-07-18T20:26:11.922Z,79.48
2017-07-18T20:28:39.884Z,79.76
2017-07-18T20:31:07.704Z,80.14
2017-07-18T20:33:35.497Z,80.07
2017-07-18T20:36:03.260Z,79.75
2017-07-18T20:38:31.067Z,80.60
2017-07-18T20:40:58.876Z,82.22
2017-07-18T20:43:26.817Z,81.58
2017-07-18T20:45:54.533Z,83.03
2017-07-18T20:48:22.291Z,82.53
2017-07-18T20:50:50.089Z,82.73
2017-07-18T20:53:17.847Z,82.16
2017-07-18T20:55:45.616Z,81.06
2017-07-18T20:58:13.409Z,81.34
2017-07-18T21:00:41.218Z,81.99
2017-07-18T21:03:08.924Z,82.48
2017-07-18T21:05:36.679Z,82.17
2017-07-18T21:08:04.430Z,81.55
2017-07-18T21:10:32.358Z,82.01
2017-07-18T21:13:00.046Z,82.20
2017-07-18T21:15:27.856Z,82.09
2017-07-18T21:17:55.630Z,81.38
2017-07-18T21:20:23.326Z,81.17
2017-07-18T21:22:51.092Z,81.88
2017-07-18T21:25:18.860Z,81.93
2017-07-18T21:27:46.739Z,81.14
2017-07-18T21:30:14.563Z,81.02
2017-07-18T21:32:42.284Z,80.98
2017-07-18T21:35:10.046Z,80.79
2017-07-18T21:37:37.902Z,80.56
2017-07-18T21:40:05.606Z,82.22
2017-07-18T21:42:33.315Z,82.63
2017-07-18T21:45:01.096Z,81.90
2017-07-18T21:47:28.845Z,81.23
2017-07-18T21:49:56.619Z,80.92
2017-07-18T21:52:24.430Z,81.48
2017-07-18T21:54:52.947Z,81.61
2017-07-18T21:57:20.809Z,81.64
2017-07-18T21:59:49.506Z,82.18
2017-07-18T22:02:17.256Z,81.93
2017-07-18T22:04:45.054Z,81.60
2017-07-18T22:07:12.745Z,81.35
2017-07-18T22:09:40.502Z,81.40
2017-07-18T22:12:08.206Z,81.48
2017-07-18T22:14:35.969Z,82.39
2017-07-18T22:17:03.725Z,82.90
2017-07-18T22:19:31.498Z,82.80
2017-07-18T22:21:59.267Z,82.25
2017-07-18T22:24:27.046Z,82.02
2017-07-18T22:26:54.829Z,81.83
2017-07-18T22:29:22.625Z,82.48
2017-07-18T22:31:50.324Z,82.98
2017-07-18T22:34:18.032Z,82.83
2017-07-18T22:36:45.778Z,83.74
2017-07-18T22:39:13.498Z,82.48
2017-07-18T22:41:41.247Z,83.18
2017-07-18T22:44:09.059Z,82.72
2017-07-18T22:46:36.777Z,83.04
2017-07-18T22:49:04.470Z,82.84
2017-07-18T22:51:32.215Z,83.25
2017-07-18T22:54:00.307Z,83.11
2017-07-18T22:56:28.099Z,82.96
2017-07-18T22:58:55.852Z,82.54
2017-07-18T23:01:23.589Z,82.71
2017-07-18T23:03:51.410Z,83.06
2017-07-18T23:06:19.111Z,82.92
2017-07-18T23:08:46.868Z,84.13
2017-07-18T23:11:14.575Z,84.19
2017-07-18T23:13:42.336Z,84.46
2017-07-18T23:16:10.147Z,83.46
2017-07-18T23:18:37.878Z,83.29
2017-07-18T23:21:05.698Z,82.98
2017-07-18T23:23:33.398Z,82.77
2017-07-18T23:26:01.129Z,83.37
2017-07-18T23:28:28.890Z,84.17
2017-07-18T23:30:56.614Z,84.75
2017-07-18T23:33:24.308Z,84.78
2017-07-18T23:35:52.044Z,85.27
2017-07-18T23:38:19.746Z,84.91
2017-07-18T23:40:47.454Z,84.27
2017-07-18T23:43:15.181Z,84.02
2017-07-18T23:45:42.927Z,83.80
2017-07-18T23:48:10.769Z,82.94
2017-07-18T23:50:38.498Z,82.97
2017-07-18T23:53:06.179Z,83.70
2017-07-18T23:55:33.898Z,83.69
2017-07-18T23:58:01.581Z,83.53
